createdAt,value
2023-04-05T00:01:51.534Z,99.90
2023-04-05T00:04:21.463Z,99.90
2023-04-05T00:06:52.602Z,99.90
2023-04-05T00:09:22.238Z,99.90
2023-04-05T00:11:53.764Z,99.90
2023-04-05T00:14:25.479Z,99.90
2023-04-05T00:16:55.286Z,99.90
2023-04-05T00:19:25.243Z,99.90
2023-04-05T00:21:55.147Z,99.90
2023-04-05T00:24:25.023Z,99.90
2023-04-05T00:26:55.710Z,99.90
2023-04-05T00:29:25.302Z,99.90
2023-04-05T00:31:55.024Z,99.90
2023-04-05T00:34:24.316Z,99.90
2023-04-05T00:36:54.391Z,99.90
2023-04-05T00:39:22.990Z,99.90
2023-04-05T00:41:52.149Z,99.90
2023-04-05T00:44:23.045Z,99.90
2023-04-05T00:46:52.886Z,99.90
2023-04-05T00:49:22.058Z,99.90
2023-04-05T00:51:52.570Z,99.90
2023-04-05T00:54:21.185Z,99.90
2023-04-05T00:56:54.633Z,99.90
2023-04-05T00:59:26.209Z,99.90
2023-04-05T01:02:08.103Z,99.90
2023-04-05T01:04:40.073Z,99.90
2023-04-05T01:07:20.195Z,99.90
2023-04-05T01:09:57.318Z,99.90
2023-04-05T01:12:33.681Z,99.90
2023-04-05T01:15:05.269Z,99.90
2023-04-05T01:17:39.547Z,99.90
2023-04-05T01:20:13.567Z,99.90
2023-04-05T01:23:31.189Z,99.90
2023-04-05T01:26:32.324Z,99.90
2023-04-05T01:29:46.692Z,99.90
2023-04-05T01:32:28.894Z,99.90
2023-04-05T01:35:16.479Z,99.90
2023-04-05T01:37:50.972Z,99.90
2023-04-05T01:40:22.412Z,99.90
2023-04-05T01:42:52.148Z,99.90
2023-04-05T01:45:23.051Z,99.90
2023-04-05T01:47:53.132Z,99.90
2023-04-05T01:50:22.344Z,99.90
2023-04-05T01:52:52.279Z,99.90
2023-04-05T01:55:22.005Z,99.90
2023-04-05T01:57:50.859Z,99.90
2023-04-05T02:00:22.228Z,99.90
2023-04-05T02:02:52.385Z,99.90
2023-04-05T02:05:21.119Z,99.90
2023-04-05T02:07:50.019Z,99.90
2023-04-05T02:10:38.251Z,99.90
2023-04-05T02:13:07.907Z,99.90
2023-04-05T02:16:01.447Z,99.90
2023-04-05T02:18:52.111Z,99.90
2023-04-05T02:21:22.447Z,99.90
2023-04-05T02:23:51.190Z,99.90
2023-04-05T02:26:24.308Z,99.90
2023-04-05T02:28:53.770Z,99.90
2023-04-05T02:31:25.094Z,99.90
2023-04-05T02:33:54.337Z,99.90
2023-04-05T02:36:23.347Z,99.90
2023-04-05T02:38:52.362Z,99.90
2023-04-05T02:41:23.682Z,99.90
2023-04-05T02:43:53.406Z,99.90
2023-04-05T02:46:23.340Z,99.90
2023-04-05T02:51:41.309Z,99.90
2023-04-05T02:54:12.251Z,99.90
2023-04-05T02:56:43.076Z,99.90
2023-04-05T02:59:17.979Z,99.90
2023-04-05T03:02:12.114Z,99.90
2023-04-05T03:04:45.906Z,99.90
2023-04-05T03:07:19.021Z,99.90
2023-04-05T03:09:51.626Z,99.90
2023-04-05T03:12:21.855Z,99.90
2023-04-05T03:14:53.128Z,99.90
2023-04-05T03:17:26.586Z,99.90
2023-04-05T03:20:06.595Z,99.90
2023-04-05T03:22:36.326Z,99.90
2023-04-05T03:25:06.956Z,99.90
2023-04-05T03:27:42.656Z,99.90
2023-04-05T03:30:16.623Z,99.90
2023-04-05T03:32:54.367Z,99.90
2023-04-05T03:38:42.673Z,99.90
2023-04-05T03:41:34.276Z,99.90
2023-04-05T03:44:03.251Z,99.90
2023-04-05T03:46:33.723Z,99.90
2023-04-05T03:49:04.579Z,99.90
2023-04-05T03:54:22.783Z,99.90
2023-04-05T03:56:57.104Z,99.90
2023-04-05T03:59:26.396Z,99.90
2023-04-05T04:01:56.036Z,99.90
2023-04-05T04:04:28.440Z,99.90
2023-04-05T04:06:58.869Z,99.90
2023-04-05T04:09:36.106Z,99.90
2023-04-05T04:12:11.451Z,99.90
2023-04-05T04:14:49.291Z,99.90
2023-04-05T04:17:39.925Z,99.90
2023-04-05T04:20:37.312Z,99.90
2023-04-05T04:23:25.121Z,99.90
2023-04-05T04:26:29.384Z,99.90
2023-04-05T04:29:16.638Z,99.90
2023-04-05T04:31:59.417Z,99.90
2023-04-05T04:39:19.853Z,99.90
2023-04-05T04:42:20.254Z,99.90
2023-04-05T04:45:10.821Z,99.90
2023-04-05T04:48:05.510Z,99.90
2023-04-05T04:50:55.216Z,99.90
2023-04-05T04:53:24.856Z,99.90
2023-04-05T04:55:56.431Z,99.90
2023-04-05T04:58:26.628Z,99.90
2023-04-05T05:01:12.332Z,99.90
2023-04-05T05:03:43.022Z,99.90
2023-04-05T05:06:13.851Z,99.90
2023-04-05T05:08:44.500Z,99.90
2023-04-05T05:11:15.857Z,99.90
2023-04-05T05:13:45.692Z,99.90
2023-04-05T05:16:24.228Z,99.90
2023-04-05T05:18:53.985Z,99.90
2023-04-05T05:21:27.023Z,99.90
2023-04-05T05:24:02.996Z,99.90
2023-04-05T05:26:33.519Z,99.90
2023-04-05T05:29:21.107Z,99.90
2023-04-05T05:31:53.032Z,99.90
2023-04-05T05:34:22.530Z,99.90
2023-04-05T05:36:56.796Z,99.90
2023-04-05T05:39:26.617Z,99.90
2023-04-05T05:41:56.639Z,99.90
2023-04-05T05:44:25.491Z,99.90
2023-04-05T05:46:55.643Z,99.90
2023-04-05T05:49:23.945Z,99.90
2023-04-05T05:51:54.495Z,99.90
2023-04-05T05:57:11.365Z,99.90
2023-04-05T05:59:59.916Z,99.90
2023-04-05T06:02:40.666Z,99.90
2023-04-05T06:05:10.801Z,99.90
2023-04-05T06:07:40.075Z,99.90
2023-04-05T06:10:10.454Z,99.90
2023-04-05T06:12:41.393Z,99.90
2023-04-05T06:15:11.859Z,99.90
2023-04-05T06:18:01.020Z,99.90
2023-04-05T06:20:30.724Z,99.90
2023-04-05T06:23:01.117Z,99.90
2023-04-05T06:25:51.363Z,99.90
2023-04-05T06:28:43.656Z,99.90
2023-04-05T06:31:12.952Z,99.90
2023-04-05T06:33:42.756Z,99.90
2023-04-05T06:36:14.137Z,99.90
2023-04-05T06:38:43.566Z,99.90
2023-04-05T06:41:30.725Z,99.90
2023-04-05T06:44:01.680Z,99.90
2023-04-05T06:46:31.884Z,99.90
2023-04-05T06:49:03.695Z,99.90
2023-04-05T06:51:33.634Z,99.90
2023-04-05T06:54:02.834Z,99.90
2023-04-05T06:56:32.464Z,99.90
2023-04-05T06:59:03.329Z,99.90
2023-04-05T07:01:34.921Z,99.90
2023-04-05T07:04:05.957Z,99.90
2023-04-05T07:06:39.425Z,99.90
2023-04-05T07:09:08.956Z,99.90
2023-04-05T07:11:40.872Z,99.90
2023-04-05T07:14:14.977Z,99.90
2023-04-05T07:17:02.912Z,99.90
2023-04-05T07:19:32.377Z,99.90
2023-04-05T07:22:01.826Z,99.90
2023-04-05T07:24:31.984Z,99.90
2023-04-05T07:27:19.154Z,99.90
2023-04-05T07:29:51.208Z,99.90
2023-04-05T07:32:20.662Z,99.90
2023-04-05T07:34:50.786Z,99.90
2023-04-05T07:37:19.167Z,99.90
2023-04-05T07:39:48.282Z,99.90
2023-04-05T07:42:19.484Z,99.90
2023-04-05T07:44:50.156Z,99.90
2023-04-05T07:47:20.098Z,99.90
2023-04-05T07:49:51.954Z,99.90
2023-04-05T07:52:21.224Z,99.90
2023-04-05T07:54:50.959Z,99.90
2023-04-05T07:57:38.570Z,99.90
2023-04-05T08:00:13.559Z,99.90
2023-04-05T08:02:44.763Z,99.90
2023-04-05T08:05:16.316Z,99.90
2023-04-05T08:07:45.933Z,99.90
2023-04-05T08:10:14.633Z,99.90
2023-04-05T08:12:43.153Z,99.90
2023-04-05T08:15:14.789Z,99.90
2023-04-05T08:17:43.800Z,99.90
2023-04-05T08:20:13.580Z,99.90
2023-04-05T08:25:31.235Z,99.90
2023-04-05T08:28:01.540Z,99.90
2023-04-05T08:30:32.142Z,99.90
2023-04-05T08:33:01.393Z,99.90
2023-04-05T08:35:30.203Z,99.90
2023-04-05T08:37:59.917Z,99.90
2023-04-05T08:40:42.685Z,99.90
2023-04-05T08:43:20.457Z,99.90
2023-04-05T08:45:53.738Z,99.90
2023-04-05T08:48:23.287Z,99.90
2023-04-05T08:50:53.641Z,99.90
2023-04-05T08:53:22.994Z,99.90
2023-04-05T08:55:57.666Z,99.90
2023-04-05T08:58:27.862Z,99.90
2023-04-05T09:00:59.748Z,99.90
2023-04-05T09:03:36.826Z,99.90
2023-04-05T09:06:12.002Z,99.90
2023-04-05T09:08:42.529Z,99.90
2023-04-05T09:11:14.600Z,99.90
2023-04-05T09:13:42.923Z,99.90
2023-04-05T09:16:14.671Z,99.90
2023-04-05T09:18:44.394Z,99.90
2023-04-05T09:21:13.764Z,99.90
2023-04-05T09:23:55.755Z,99.90
2023-04-05T09:26:26.331Z,99.90
2023-04-05T09:28:59.574Z,99.90
2023-04-05T09:31:38.285Z,99.90
2023-04-05T09:34:22.206Z,99.90
2023-04-05T09:36:50.857Z,99.90
2023-04-05T09:39:23.740Z,99.90
2023-04-05T09:42:08.988Z,99.90
2023-04-05T09:44:54.773Z,99.90
2023-04-05T09:47:31.442Z,99.90
2023-04-05T09:50:19.294Z,99.90
2023-04-05T09:52:49.564Z,99.90
2023-04-05T09:55:29.236Z,99.90
2023-04-05T09:57:58.468Z,99.90
2023-04-05T10:00:28.057Z,99.90
2023-04-05T10:02:59.403Z,99.90
2023-04-05T10:05:30.544Z,99.90
2023-04-05T10:08:01.578Z,99.90
2023-04-05T10:10:38.183Z,99.90
2023-04-05T10:13:07.723Z,99.90
2023-04-05T10:15:37.288Z,99.90
2023-04-05T10:18:16.993Z,99.90
2023-04-05T10:20:51.439Z,99.90
2023-04-05T10:23:29.601Z,99.90
2023-04-05T10:26:14.309Z,99.90
2023-04-05T10:28:49.167Z,99.90
2023-04-05T10:31:37.620Z,99.90
2023-04-05T10:34:15.914Z,99.90
2023-04-05T10:36:52.628Z,99.90
2023-04-05T10:39:29.278Z,99.90
2023-04-05T10:42:06.720Z,99.90
2023-04-05T10:44:40.651Z,99.90
2023-04-05T10:47:17.514Z,98.90
2023-04-05T10:49:54.805Z,99.70
2023-04-05T10:52:26.410Z,98.20
2023-04-05T10:54:57.999Z,97.30
2023-04-05T10:57:28.288Z,97.10
2023-04-05T11:00:00.581Z,97.70
2023-04-05T11:02:31.694Z,96.90
2023-04-05T11:05:08.292Z,97.10
2023-04-05T11:07:47.307Z,96.00
2023-04-05T11:10:20.611Z,94.90
2023-04-05T11:13:12.510Z,93.60
2023-04-05T11:15:43.004Z,92.80
2023-04-05T11:18:21.934Z,93.70
2023-04-05T11:20:56.195Z,90.20
2023-04-05T11:23:26.351Z,87.90
2023-04-05T11:25:58.212Z,87.70
2023-04-05T11:28:31.043Z,85.40
2023-04-05T11:31:14.883Z,80.70
2023-04-05T11:34:05.339Z,79.00
2023-04-05T11:36:46.246Z,76.40
2023-04-05T11:39:28.361Z,75.40
2023-04-05T11:42:03.025Z,75.30
2023-04-05T11:44:42.622Z,72.30
2023-04-05T11:47:12.343Z,70.90
2023-04-05T11:49:42.596Z,71.10
2023-04-05T11:52:16.256Z,70.50
2023-04-05T11:54:47.592Z,68.00
2023-04-05T11:57:20.977Z,66.40
2023-04-05T11:59:53.093Z,65.10
2023-04-05T12:02:22.914Z,63.50
2023-04-05T12:04:57.716Z,63.20
2023-04-05T12:07:33.256Z,61.80
2023-04-05T12:10:10.320Z,59.20
2023-04-05T12:12:42.417Z,59.20
2023-04-05T12:15:14.491Z,58.80
2023-04-05T12:17:47.623Z,57.60
2023-04-05T12:20:19.475Z,56.30
2023-04-05T12:22:52.677Z,56.40
2023-04-05T12:25:22.133Z,54.20
2023-04-05T12:27:51.145Z,54.20
2023-04-05T12:30:22.599Z,53.80
2023-04-05T12:32:55.341Z,52.30
2023-04-05T12:35:33.259Z,53.70
2023-04-05T12:38:05.670Z,52.00
2023-04-05T12:40:36.913Z,51.60
2023-04-05T12:43:07.784Z,50.90
2023-04-05T12:45:42.553Z,49.90
2023-04-05T12:48:13.752Z,49.40
2023-04-05T12:50:46.911Z,50.10
2023-04-05T12:53:21.482Z,48.20
2023-04-05T12:55:52.452Z,48.10
2023-04-05T12:58:22.717Z,48.60
2023-04-05T13:00:51.334Z,48.60
2023-04-05T13:03:23.818Z,47.50
2023-04-05T13:05:53.068Z,47.00
2023-04-05T13:08:23.890Z,46.70
2023-04-05T13:10:57.740Z,46.60
2023-04-05T13:13:26.672Z,46.10
2023-04-05T13:15:55.650Z,46.10
2023-04-05T13:18:24.749Z,44.70
2023-04-05T13:20:54.792Z,45.40
2023-04-05T13:23:24.818Z,44.50
2023-04-05T13:25:55.101Z,44.60
2023-04-05T13:28:26.208Z,44.50
2023-04-05T13:30:57.689Z,43.90
2023-04-05T13:33:28.130Z,43.80
2023-04-05T13:35:59.212Z,44.40
2023-04-05T13:38:30.210Z,43.40
2023-04-05T13:40:59.545Z,43.00
2023-04-05T13:43:29.127Z,43.20
2023-04-05T13:45:58.575Z,42.00
2023-04-05T13:48:27.737Z,42.20
2023-04-05T13:50:56.630Z,42.00
2023-04-05T13:53:28.015Z,41.70
2023-04-05T13:55:59.206Z,41.90
2023-04-05T13:58:28.602Z,41.90
2023-04-05T14:00:58.083Z,41.00
2023-04-05T14:03:27.650Z,41.50
2023-04-05T14:05:56.843Z,42.30
2023-04-05T14:08:26.391Z,42.40
2023-04-05T14:10:55.648Z,41.80
2023-04-05T14:13:26.673Z,41.20
2023-04-05T14:15:56.220Z,40.70
2023-04-05T14:18:24.895Z,41.30
2023-04-05T14:20:56.379Z,42.10
2023-04-05T14:23:27.491Z,41.90
2023-04-05T14:25:56.629Z,41.10
2023-04-05T14:28:26.556Z,41.00
2023-04-05T14:30:56.999Z,41.60
2023-04-05T14:33:26.617Z,40.70
2023-04-05T14:35:55.122Z,41.30
2023-04-05T14:38:23.886Z,40.90
2023-04-05T14:40:53.333Z,41.20
2023-04-05T14:43:22.904Z,41.40
2023-04-05T14:45:53.632Z,41.50
2023-04-05T14:48:22.551Z,41.90
2023-04-05T14:50:51.377Z,41.90
2023-04-05T14:53:20.492Z,41.50
2023-04-05T14:55:49.884Z,41.30
2023-04-05T14:58:19.346Z,42.10
2023-04-05T15:00:51.864Z,43.40
2023-04-05T15:03:22.596Z,44.90
2023-04-05T15:05:52.007Z,46.10
2023-04-05T15:08:20.455Z,48.10
2023-04-05T15:10:49.813Z,50.20
2023-04-05T15:13:21.812Z,51.20
2023-04-05T15:15:50.725Z,52.50
2023-04-05T15:18:19.836Z,52.90
2023-04-05T15:20:51.093Z,54.00
2023-04-05T15:23:21.391Z,54.60
2023-04-05T15:25:50.064Z,54.70
2023-04-05T15:28:19.152Z,55.20
2023-04-05T15:30:47.956Z,56.00
2023-04-05T15:33:18.577Z,56.30
2023-04-05T15:35:47.308Z,56.80
2023-04-05T15:38:17.937Z,57.00
2023-04-05T15:40:49.653Z,57.60
2023-04-05T15:43:18.636Z,58.10
2023-04-05T15:45:46.942Z,58.40
2023-04-05T15:48:16.409Z,58.20
2023-04-05T15:50:45.240Z,57.30
2023-04-05T15:53:14.746Z,57.30
2023-04-05T15:55:46.026Z,57.40
2023-04-05T15:58:15.094Z,57.50
2023-04-05T16:00:44.810Z,58.50
2023-04-05T16:03:13.609Z,58.60
2023-04-05T16:05:43.633Z,58.40
2023-04-05T16:08:12.626Z,59.00
2023-04-05T16:10:43.087Z,58.70
2023-04-05T16:13:13.042Z,58.20
2023-04-05T16:15:42.783Z,58.50
2023-04-05T16:18:14.471Z,57.90
2023-04-05T16:20:44.957Z,58.30
2023-04-05T16:23:14.854Z,58.40
2023-04-05T16:25:44.471Z,58.30
2023-04-05T16:28:14.692Z,58.60
2023-04-05T16:30:46.332Z,59.10
2023-04-05T16:33:16.371Z,59.60
2023-04-05T16:35:45.027Z,58.50
2023-04-05T16:38:13.851Z,58.50
2023-04-05T16:40:42.576Z,58.50
2023-04-05T16:43:14.021Z,58.40
2023-04-05T16:45:43.911Z,58.40
2023-04-05T16:48:15.089Z,58.40
2023-04-05T16:50:43.995Z,58.20
2023-04-05T16:53:14.999Z,59.00
2023-04-05T16:55:43.667Z,59.50
2023-04-05T16:58:13.551Z,60.00
2023-04-05T17:00:44.045Z,59.80
2023-04-05T17:03:12.999Z,60.40
2023-04-05T17:05:41.539Z,60.60
2023-04-05T17:08:10.472Z,59.10
2023-04-05T17:10:39.763Z,59.30
2023-04-05T17:13:09.263Z,60.50
2023-04-05T17:15:39.772Z,60.20
2023-04-05T17:18:09.514Z,61.40
2023-04-05T17:20:38.078Z,60.40
2023-04-05T17:23:06.754Z,61.00
2023-04-05T17:25:35.782Z,61.60
2023-04-05T17:28:04.336Z,61.50
2023-04-05T17:30:34.423Z,61.60
2023-04-05T17:33:04.893Z,61.70
2023-04-05T17:35:33.410Z,62.20
2023-04-05T17:38:03.429Z,62.60
2023-04-05T17:40:33.118Z,63.30
2023-04-05T17:43:02.404Z,64.50
2023-04-05T17:45:31.809Z,65.00
2023-04-05T17:48:02.278Z,65.10
2023-04-05T17:50:32.932Z,67.00
2023-04-05T17:53:02.604Z,66.80
2023-04-05T17:55:33.786Z,66.50
2023-04-05T17:58:02.522Z,66.20
2023-04-05T18:00:31.401Z,67.20
2023-04-05T18:03:06.051Z,67.50
2023-04-05T18:05:39.308Z,67.70
2023-04-05T18:08:11.716Z,68.20
2023-04-05T18:10:40.474Z,70.60
2023-04-05T18:13:09.660Z,73.50
2023-04-05T18:15:39.617Z,74.70
2023-04-05T18:18:09.833Z,77.00
2023-04-05T18:20:40.951Z,78.50
2023-04-05T18:23:09.894Z,78.90
2023-04-05T18:25:39.547Z,78.90
2023-04-05T18:28:21.300Z,80.50
2023-04-05T18:30:51.377Z,82.10
2023-04-05T18:33:22.471Z,82.70
2023-04-05T18:35:53.793Z,83.60
2023-04-05T18:38:23.397Z,84.20
2023-04-05T18:40:52.492Z,85.50
2023-04-05T18:43:21.577Z,86.60
2023-04-05T18:45:50.679Z,86.80
2023-04-05T18:48:20.814Z,87.70
2023-04-05T18:50:51.309Z,88.50
2023-04-05T18:53:22.869Z,89.40
2023-04-05T18:55:52.989Z,89.50
2023-04-05T18:58:21.967Z,90.10
2023-04-05T19:00:50.500Z,90.30
2023-04-05T19:03:21.357Z,90.30
2023-04-05T19:05:56.005Z,90.60
2023-04-05T19:08:27.571Z,90.90
2023-04-05T19:10:56.441Z,91.10
2023-04-05T19:13:25.454Z,91.70
2023-04-05T19:15:55.017Z,92.00
2023-04-05T19:18:26.031Z,92.10
2023-04-05T19:20:56.018Z,91.80
2023-04-05T19:23:27.365Z,91.60
2023-04-05T19:26:22.285Z,91.50
2023-04-05T19:28:51.254Z,91.50
2023-04-05T19:31:20.802Z,91.60
2023-04-05T19:33:50.669Z,91.60
2023-04-05T19:36:19.352Z,91.60
2023-04-05T19:38:51.710Z,91.60
2023-04-05T19:41:21.954Z,91.80
2023-04-05T19:43:53.201Z,92.20
2023-04-05T19:46:22.136Z,92.30
2023-04-05T19:48:51.686Z,92.50
2023-04-05T19:51:28.956Z,92.70
2023-04-05T19:54:01.033Z,93.00
2023-04-05T19:56:32.668Z,93.30
2023-04-05T19:59:14.950Z,93.50
2023-04-05T20:01:47.723Z,93.70
2023-04-05T20:04:20.013Z,93.80
2023-04-05T20:06:53.341Z,94.00
2023-04-05T20:09:25.078Z,94.10
2023-04-05T20:11:58.790Z,94.20
2023-04-05T20:14:31.480Z,94.40
2023-04-05T20:17:01.641Z,94.70
2023-04-05T20:19:32.625Z,94.80
2023-04-05T20:22:03.623Z,94.90
2023-04-05T20:24:34.480Z,95.00
2023-04-05T20:27:04.169Z,95.40
2023-04-05T20:29:35.974Z,95.20
2023-04-05T20:32:06.805Z,95.20
2023-04-05T20:34:38.377Z,95.40
2023-04-05T20:37:11.074Z,95.70
2023-04-05T20:39:41.197Z,96.10
2023-04-05T20:42:11.624Z,95.80
2023-04-05T20:44:41.238Z,96.00
2023-04-05T20:47:10.020Z,96.20
2023-04-05T20:49:39.761Z,96.30
2023-04-05T20:52:09.447Z,96.20
2023-04-05T20:54:38.342Z,96.30
2023-04-05T20:57:09.824Z,96.40
2023-04-05T20:59:39.185Z,96.70
2023-04-05T21:02:08.339Z,96.30
2023-04-05T21:04:37.209Z,96.40
2023-04-05T21:07:06.079Z,96.50
2023-04-05T21:09:34.859Z,96.60
2023-04-05T21:12:04.153Z,96.90
2023-04-05T21:14:34.173Z,97.10
2023-04-05T21:17:04.295Z,97.10
2023-04-05T21:19:33.205Z,97.20
2023-04-05T21:22:01.798Z,97.20
2023-04-05T21:24:30.680Z,97.20
2023-04-05T21:26:59.679Z,97.20
2023-04-05T21:29:28.699Z,97.20
2023-04-05T21:31:59.092Z,97.40
2023-04-05T21:34:28.202Z,97.40
2023-04-05T21:36:57.699Z,97.30
2023-04-05T21:39:26.343Z,97.40
2023-04-05T21:41:56.091Z,97.50
2023-04-05T21:44:25.403Z,97.60
2023-04-05T21:46:54.370Z,97.60
2023-04-05T21:49:25.075Z,97.70
2023-04-05T21:51:54.514Z,97.70
2023-04-05T21:54:23.547Z,97.70
2023-04-05T21:56:52.335Z,97.70
2023-04-05T21:59:21.072Z,97.70
2023-04-05T22:01:50.291Z,97.80
2023-04-05T22:04:19.028Z,97.90
2023-04-05T22:06:49.395Z,98.00
2023-04-05T22:09:18.021Z,98.00
2023-04-05T22:11:47.624Z,98.10
2023-04-05T22:14:16.405Z,98.10
2023-04-05T22:16:45.460Z,98.00
2023-04-05T22:19:14.994Z,98.10
2023-04-05T22:21:44.172Z,98.10
2023-04-05T22:24:16.771Z,98.20
2023-04-05T22:26:45.512Z,98.40
2023-04-05T22:29:15.392Z,98.30
2023-04-05T22:31:44.242Z,98.40
2023-04-05T22:34:14.429Z,98.60
2023-04-05T22:36:43.799Z,98.70
2023-04-05T22:39:14.390Z,98.70
2023-04-05T22:41:43.694Z,98.80
2023-04-05T22:44:12.766Z,98.90
2023-04-05T22:46:41.877Z,99.10
2023-04-05T22:49:10.705Z,99.10
2023-04-05T22:51:39.096Z,99.20
2023-04-05T22:54:08.243Z,99.30
2023-04-05T22:56:39.461Z,99.30
2023-04-05T22:59:09.226Z,99.40
2023-04-05T23:01:38.928Z,99.60
2023-04-05T23:04:07.781Z,99.60
2023-04-05T23:06:36.315Z,99.70
2023-04-05T23:09:06.308Z,99.70
2023-04-05T23:11:36.187Z,99.90
2023-04-05T23:14:06.364Z,99.90
2023-04-05T23:16:36.431Z,99.90
2023-04-05T23:19:05.054Z,99.90
2023-04-05T23:21:34.068Z,99.90
2023-04-05T23:24:03.741Z,99.90
2023-04-05T23:26:33.291Z,99.90
2023-04-05T23:29:02.332Z,99.90
2023-04-05T23:31:33.028Z,99.90
2023-04-05T23:34:02.544Z,99.90
2023-04-05T23:36:32.532Z,99.90
2023-04-05T23:39:01.797Z,99.90
2023-04-05T23:41:31.418Z,99.90
2023-04-05T23:44:01.151Z,99.90
2023-04-05T23:46:31.560Z,99.90
2023-04-05T23:49:01.238Z,99.90
2023-04-05T23:51:30.402Z,99.90
2023-04-05T23:53:59.852Z,99.90
2023-04-05T23:56:28.522Z,99.90
2023-04-05T23:58:57.596Z,99.90
